Time;durP1;ratioP1;P1;durP2;ratioP2;P2;SDS_P1;SDS_P2;PMS_P1;PMS_P2;Temp;Humidity;BMP_temperature;BMP_pressure;BME280_temperature;BME280_humidity;BME280_pressure;Samples;Min_cycle;Max_cycle;Signal;HPM_P1;HPM_P2
2022/06/06 00:01:18;;;;;;;8.40;4.97;;;;;;;22.44;62.34;96793.38;5047135;28;20202;-73
2022/06/06 00:03:46;;;;;;;6.33;4.57;;;;;;;22.32;62.89;96802.47;5045350;28;20194;-72
2022/06/06 00:06:19;;;;;;;7.60;5.00;;;;;;;22.38;62.68;96793.16;5047218;28;20194;-73
2022/06/06 00:08:48;;;;;;;5.00;4.50;;;;;;;22.52;62.36;96798.72;5047725;28;20244;-73
2022/06/06 00:11:16;;;;;;;5.70;4.37;;;;;;;22.51;61.93;96781.25;5051145;28;20188;-73
2022/06/06 00:13:46;;;;;;;5.00;4.00;;;;;;;22.67;61.77;96803.53;5049972;28;20223;-73
2022/06/06 00:16:14;;;;;;;5.87;3.87;;;;;;;22.75;61.44;96791.22;5049955;28;20439;-73
2022/06/06 00:18:44;;;;;;;5.70;3.63;;;;;;;22.83;61.80;96786.03;5033067;28;20187;-73
2022/06/06 00:21:11;;;;;;;7.97;4.43;;;;;;;22.92;61.28;96786.91;5049310;28;20266;-73
2022/06/06 00:23:39;;;;;;;6.67;3.80;;;;;;;23.00;61.22;96779.91;5050723;28;20572;-73
2022/06/06 00:26:10;;;;;;;6.77;4.10;;;;;;;23.20;60.97;96780.56;5048924;28;20611;-73
2022/06/06 00:28:39;;;;;;;6.83;4.13;;;;;;;23.30;60.30;96781.28;5050572;28;20201;-73
2022/06/06 00:36:38;;;;;;;4.23;3.70;;;;;;;23.32;60.66;96774.06;5050700;28;20198;-73
2022/06/06 00:39:08;;;;;;;6.73;4.13;;;;;;;23.23;60.40;96777.59;5048875;28;20653;-72
2022/06/06 00:41:40;;;;;;;6.03;4.03;;;;;;;22.98;61.58;96786.34;5050344;28;20201;-73
2022/06/06 00:44:13;;;;;;;11.33;4.73;;;;;;;22.92;61.86;96789.56;5032036;28;20261;-73
2022/06/06 00:46:46;;;;;;;5.37;4.27;;;;;;;22.92;61.71;96787.75;5049327;28;20568;-72
2022/06/06 00:49:36;;;;;;;8.77;3.93;;;;;;;22.87;61.72;96776.84;5050109;28;20224;-73
2022/06/06 00:52:10;;;;;;;4.60;4.07;;;;;;;22.73;61.96;96779.97;5030799;28;20676;-73
2022/06/06 00:54:39;;;;;;;5.43;4.43;;;;;;;22.54;62.73;96782.75;5050089;28;20253;-74
2022/06/06 00:57:12;;;;;;;5.10;4.40;;;;;;;22.21;64.17;96776.31;5049697;28;20191;-73
2022/06/06 00:59:42;;;;;;;9.10;4.20;;;;;;;22.33;63.61;96769.84;5048741;28;20188;-73
2022/06/06 01:02:11;;;;;;;5.03;4.27;;;;;;;22.83;62.53;96769.38;5050056;28;20196;-74
2022/06/06 01:04:40;;;;;;;9.10;4.17;;;;;;;22.92;61.92;96777.19;5030605;28;20209;-73
2022/06/06 01:07:09;;;;;;;6.67;4.13;;;;;;;23.06;61.30;96758.16;5049892;28;20200;-73
2022/06/06 01:09:38;;;;;;;4.80;4.07;;;;;;;22.61;62.46;96758.28;5030575;28;20704;-73
2022/06/06 01:12:11;;;;;;;9.30;4.20;;;;;;;22.61;62.79;96753.00;5031562;28;20194;-73
2022/06/06 01:14:45;;;;;;;5.03;4.40;;;;;;;22.60;63.19;96751.34;5049688;28;20238;-72
2022/06/06 01:17:44;;;;;;;5.70;3.63;;;;;;;22.94;61.93;96738.25;5030000;28;20683;-73
2022/06/06 01:20:53;;;;;;;6.83;4.30;;;;;;;23.11;61.99;96747.97;5034236;28;20202;-72
2022/06/06 01:23:30;;;;;;;7.47;4.13;;;;;;;23.21;61.02;96750.50;5049677;28;20196;-72
2022/06/06 01:26:18;;;;;;;5.90;4.23;;;;;;;23.03;62.13;96747.91;5047893;28;20216;-73
2022/06/06 01:29:06;;;;;;;6.43;3.93;;;;;;;23.02;61.92;96742.78;5049515;28;20256;-72
2022/06/06 01:31:48;;;;;;;5.77;4.40;;;;;;;23.22;61.16;96738.97;5030826;28;20194;-72
2022/06/06 01:34:25;;;;;;;5.57;4.83;;;;;;;23.17;61.17;96742.06;5047831;28;20185;-73
2022/06/06 01:36:54;;;;;;;6.87;4.57;;;;;;;23.24;61.08;96744.91;5031273;28;20197;-73
2022/06/06 01:39:24;;;;;;;5.10;4.67;;;;;;;23.15;61.11;96745.84;5048087;28;20239;-72
2022/06/06 01:42:13;;;;;;;8.13;5.47;;;;;;;22.97;61.15;96739.75;5031340;28;20582;-72
2022/06/06 01:44:49;;;;;;;9.47;5.10;;;;;;;22.34;63.46;96731.91;5049163;28;20189;-72
2022/06/06 01:47:50;;;;;;;6.97;5.60;;;;;;;22.12;64.07;96713.88;5047697;28;20192;-72
2022/06/06 01:50:19;;;;;;;9.63;7.37;;;;;;;22.26;64.11;96716.00;5043513;28;20290;-73
2022/06/06 01:53:00;;;;;;;7.73;4.70;;;;;;;22.46;63.28;96709.59;5030311;28;20185;-73
2022/06/06 01:55:29;;;;;;;9.13;4.67;;;;;;;22.50;63.27;96708.31;5048029;28;20667;-73
2022/06/06 01:58:01;;;;;;;7.23;5.40;;;;;;;22.26;63.34;96692.25;5031226;28;20274;-73
2022/06/06 02:00:31;;;;;;;6.77;4.60;;;;;;;22.19;63.86;96709.69;5029322;28;20205;-74
2022/06/06 02:02:58;;;;;;;8.43;5.03;;;;;;;22.36;63.31;96703.56;5048913;28;20663;-74
2022/06/06 02:05:26;;;;;;;5.33;4.47;;;;;;;22.55;62.81;96711.34;5047182;28;20193;-73
2022/06/06 02:07:53;;;;;;;10.23;4.60;;;;;;;22.71;62.00;96700.09;5048737;28;20605;-72
2022/06/06 02:10:22;;;;;;;7.43;5.00;;;;;;;22.84;61.74;96703.19;5048106;28;20259;-73
2022/06/06 02:12:49;;;;;;;7.83;4.90;;;;;;;22.82;61.63;96722.78;5047568;28;20675;-73
2022/06/06 02:15:19;;;;;;;5.57;4.57;;;;;;;22.55;62.39;96716.63;5030852;28;20200;-73
2022/06/06 02:17:46;;;;;;;5.20;4.40;;;;;;;22.05;63.35;96714.63;5047041;28;20200;-73
2022/06/06 02:20:15;;;;;;;5.03;4.53;;;;;;;21.75;64.63;96708.66;5048732;28;20188;-73
2022/06/06 02:22:43;;;;;;;5.70;5.20;;;;;;;21.25;66.34;96703.84;5046957;28;20415;-73
2022/06/06 02:25:12;;;;;;;7.33;5.20;;;;;;;21.13;67.11;96715.53;5048137;28;20219;-73
2022/06/06 02:27:40;;;;;;;5.27;4.77;;;;;;;20.88;68.17;96712.53;5013584;28;20205;-73
2022/06/06 02:30:12;;;;;;;6.77;4.53;;;;;;;20.76;68.67;96710.19;5028368;28;20712;-73
2022/06/06 02:32:39;;;;;;;6.70;4.70;;;;;;;20.95;68.27;96708.38;5047866;28;20186;-73
2022/06/06 02:35:09;;;;;;;9.00;5.30;;;;;;;21.05;67.96;96706.56;5046603;28;20190;-73
2022/06/06 02:37:37;;;;;;;5.27;4.77;;;;;;;21.17;67.62;96717.75;5030760;28;20182;-74
2022/06/06 02:40:07;;;;;;;11.63;4.50;;;;;;;21.42;67.02;96727.66;5029191;28;20190;-75
2022/06/06 02:42:34;;;;;;;7.20;4.93;;;;;;;21.61;65.89;96729.38;5029702;28;20587;-73
2022/06/06 02:45:02;;;;;;;5.73;4.67;;;;;;;21.86;65.58;96731.38;5047789;28;20198;-74
2022/06/06 02:47:30;;;;;;;8.80;4.77;;;;;;;22.18;64.11;96712.44;5046590;28;20765;-72
2022/06/06 02:49:57;;;;;;;6.93;4.73;;;;;;;22.42;63.57;96718.78;5048086;28;20223;-73
2022/06/06 02:52:25;;;;;;;5.10;4.60;;;;;;;22.60;63.47;96719.66;5046345;28;20694;-72
2022/06/06 02:54:52;;;;;;;5.10;4.23;;;;;;;22.80;62.73;96717.69;5047835;28;20765;-73
2022/06/06 02:57:19;;;;;;;6.43;4.70;;;;;;;22.81;62.33;96711.44;5046568;28;20196;-73
2022/06/06 02:59:51;;;;;;;10.30;4.60;;;;;;;22.68;62.77;96700.41;5047586;28;20264;-73
2022/06/06 03:02:18;;;;;;;12.77;7.70;;;;;;;22.64;62.88;96707.00;5029694;28;20657;-73
2022/06/06 03:04:45;;;;;;;11.03;7.77;;;;;;;22.70;62.16;96710.81;5028694;28;20209;-73
2022/06/06 03:07:30;;;;;;;6.73;5.23;;;;;;;22.06;64.63;96713.63;5029951;28;20650;-73
2022/06/06 03:10:17;;;;;;;8.20;5.73;;;;;;;21.48;65.86;96715.69;5011606;28;20959;-73
2022/06/06 03:12:52;;;;;;;7.83;6.10;;;;;;;21.84;64.96;96712.25;5047266;28;20190;-73
2022/06/06 03:22:08;;;;;;;5.80;4.97;;;;;;;22.03;64.44;96754.31;5028364;28;20674;-72
2022/06/06 03:24:59;;;;;;;5.40;4.60;;;;;;;22.07;63.83;96763.59;5047489;28;20621;-72
2022/06/06 03:27:51;;;;;;;6.77;5.27;;;;;;;21.39;67.33;96785.09;5027961;28;20192;-72
2022/06/06 03:30:39;;;;;;;7.70;5.50;;;;;;;21.04;68.92;96804.16;5028411;28;20345;-73
2022/06/06 03:33:27;;;;;;;8.37;4.83;;;;;;;21.08;69.23;96817.84;5029578;28;20244;-73
2022/06/06 03:35:57;;;;;;;13.07;6.17;;;;;;;21.25;70.12;96861.91;5045453;28;20190;-73
2022/06/06 03:38:27;;;;;;;9.80;5.13;;;;;;;21.31;71.04;96890.34;5047420;28;20251;-73
2022/06/06 03:41:14;;;;;;;12.97;6.47;;;;;;;21.21;72.74;96868.44;5046609;28;20190;-73
2022/06/06 03:43:50;;;;;;;10.67;6.53;;;;;;;21.35;74.43;96895.19;5032035;28;20194;-73
2022/06/06 03:46:42;;;;;;;12.33;8.57;;;;;;;21.49;74.53;96917.66;5033347;28;20680;-73
2022/06/06 03:49:25;;;;;;;11.97;7.13;;;;;;;21.55;74.75;96901.28;5031794;28;20199;-73
2022/06/06 03:52:15;;;;;;;9.43;7.10;;;;;;;21.64;74.58;96867.00;5032828;28;20243;-73
2022/06/06 03:54:55;;;;;;;13.40;6.67;;;;;;;21.55;75.61;96881.03;5051068;28;20187;-72
2022/06/06 03:57:26;;;;;;;10.00;5.87;;;;;;;21.42;77.16;96855.94;5031295;28;20196;-72
2022/06/06 03:59:56;;;;;;;8.00;5.80;;;;;;;21.45;77.15;96803.78;5033073;28;20197;-74
2022/06/06 04:02:36;;;;;;;11.33;5.47;;;;;;;21.38;76.09;96759.69;5050251;28;20187;-73
2022/06/06 04:05:08;;;;;;;7.30;4.30;;;;;;;21.37;74.97;96710.63;5049699;28;20187;-72
2022/06/06 04:07:35;;;;;;;7.80;3.83;;;;;;;21.60;75.05;96740.91;5050846;28;20198;-72
2022/06/06 04:10:04;;;;;;;7.20;3.50;;;;;;;21.36;74.31;96767.75;5030959;28;20641;-74
2022/06/06 04:12:43;;;;;;;6.83;3.30;;;;;;;20.87;75.41;96792.47;5032365;28;20206;-73
2022/06/06 04:15:20;;;;;;;7.73;3.43;;;;;;;20.95;75.05;96794.41;5049173;28;20189;-72
2022/06/06 04:18:13;;;;;;;6.00;3.90;;;;;;;21.24;75.66;96782.06;5031915;28;20314;-73
2022/06/06 04:21:08;;;;;;;6.27;3.00;;;;;;;21.34;73.27;96824.19;5032658;28;20189;-72
2022/06/06 04:23:56;;;;;;;4.97;2.80;;;;;;;21.15;73.05;96850.53;5030608;28;20190;-73
2022/06/06 04:26:49;;;;;;;8.53;3.07;;;;;;;20.78;75.70;96856.47;5049255;28;20254;-72
2022/06/06 04:29:31;;;;;;;5.73;3.00;;;;;;;21.07;76.46;96867.06;5032333;28;20190;-72
2022/06/06 04:32:31;;;;;;;5.07;3.20;;;;;;;21.21;74.28;96871.06;5030658;28;20244;-73
2022/06/06 04:35:17;;;;;;;5.47;2.53;;;;;;;21.11;73.77;96878.97;5049520;28;20190;-73
2022/06/06 04:37:56;;;;;;;5.50;2.60;;;;;;;21.13;73.21;96884.09;5050299;28;20190;-72
2022/06/06 04:40:49;;;;;;;3.43;2.10;;;;;;;21.08;72.37;96882.72;5030612;28;20192;-73
2022/06/06 04:43:33;;;;;;;6.17;3.23;;;;;;;21.13;73.18;96892.00;5051802;28;20244;-73
2022/06/06 04:46:12;;;;;;;4.73;2.53;;;;;;;21.18;73.34;96892.44;5050212;28;20186;-73
2022/06/06 04:48:40;;;;;;;6.30;2.57;;;;;;;20.76;74.67;96904.97;5014246;28;20670;-73
2022/06/06 04:51:08;;;;;;;4.67;2.63;;;;;;;20.19;76.72;96902.97;5050068;28;20232;-74
2022/06/06 04:53:39;;;;;;;8.73;3.20;;;;;;;20.07;78.30;96915.34;5047504;28;20194;-74
2022/06/06 04:56:08;;;;;;;8.23;3.03;;;;;;;20.05;79.24;96913.84;5050097;28;20243;-73
2022/06/06 04:58:38;;;;;;;4.77;3.43;;;;;;;20.08;79.75;96924.91;5048589;28;20197;-74
2022/06/06 05:01:15;;;;;;;4.80;3.10;;;;;;;20.32;79.71;96918.56;5049469;28;20194;-75
2022/06/06 05:03:43;;;;;;;5.67;3.20;;;;;;;20.26;78.53;96912.84;5049589;28;20189;-72
2022/06/06 05:06:14;;;;;;;5.97;3.23;;;;;;;20.28;78.04;96904.81;5030655;28;20661;-74
2022/06/06 05:09:21;;;;;;;6.13;3.10;;;;;;;20.41;77.95;96894.91;5049760;28;20321;-74
2022/06/06 05:12:05;;;;;;;7.47;2.87;;;;;;;20.52;76.47;96897.44;5047790;28;20723;-74
2022/06/06 05:14:35;;;;;;;5.53;2.83;;;;;;;20.38;77.44;96894.34;5049260;28;20269;-73
2022/06/06 05:17:33;;;;;;;10.40;5.53;;;;;;;20.21;77.87;96898.44;5049817;28;20185;-73
2022/06/06 05:20:07;;;;;;;6.00;3.10;;;;;;;20.42;77.29;96907.09;5047798;28;20197;-74
2022/06/06 05:22:49;;;;;;;4.70;2.40;;;;;;;20.22;76.98;96900.94;5031517;28;20822;-74
2022/06/06 05:25:40;;;;;;;5.27;2.87;;;;;;;20.02;77.06;96877.28;5029986;28;20213;-74
2022/06/06 05:28:27;;;;;;;9.73;3.20;;;;;;;20.01;76.71;96875.63;5047851;28;20193;-73
2022/06/06 05:31:20;;;;;;;5.17;2.83;;;;;;;20.26;76.42;96883.91;5031259;28;20735;-73
2022/06/06 05:34:13;;;;;;;7.57;4.40;;;;;;;20.84;74.68;96884.88;5047743;28;20229;-74
2022/06/06 05:37:05;;;;;;;6.87;2.93;;;;;;;21.15;73.17;96874.25;5047973;28;20192;-73
2022/06/06 05:39:56;;;;;;;3.70;2.10;;;;;;;21.08;72.05;96862.63;5031033;28;20280;-72
2022/06/06 05:42:36;;;;;;;6.17;2.40;;;;;;;21.18;71.79;96856.38;5047468;28;20195;-74
2022/06/06 05:45:14;;;;;;;6.13;2.27;;;;;;;21.35;71.42;96862.75;5048077;28;20658;-74
2022/06/06 05:47:58;;;;;;;3.63;2.53;;;;;;;21.93;70.69;96869.56;5030952;28;20198;-74
2022/06/06 05:50:45;;;;;;;8.87;2.73;;;;;;;22.61;69.18;96877.06;4996382;28;20234;-73
2022/06/06 05:53:36;;;;;;;4.63;2.40;;;;;;;23.39;67.11;96880.81;5048286;28;20227;-73
2022/06/06 05:56:33;;;;;;;6.13;2.33;;;;;;;23.90;63.13;96885.34;5048212;28;20183;-73
2022/06/06 05:59:34;;;;;;;5.53;2.83;;;;;;;23.84;64.00;96885.97;5047016;28;20633;-73
2022/06/06 06:02:04;;;;;;;5.67;2.57;;;;;;;24.61;61.77;96896.47;5030743;28;20190;-73
2022/06/06 06:04:55;;;;;;;6.67;2.93;;;;;;;25.11;59.67;96885.88;5047400;28;20654;-73
2022/06/06 06:07:30;;;;;;;7.50;2.97;;;;;;;25.29;59.10;96903.28;5028883;28;20209;-73
2022/06/06 06:10:09;;;;;;;6.73;3.53;;;;;;;25.69;59.46;96911.31;5048594;28;20323;-73
2022/06/06 06:12:46;;;;;;;14.50;7.63;;;;;;;25.67;61.40;96907.16;5045205;28;20259;-72
2022/06/06 06:15:22;;;;;;;12.23;5.50;;;;;;;25.60;61.95;96917.59;5047633;28;20614;-73
2022/06/06 06:17:53;;;;;;;9.73;4.73;;;;;;;25.60;61.34;96884.94;5029752;28;20580;-72
2022/06/06 06:20:25;;;;;;;11.47;4.40;;;;;;;25.96;59.86;96915.44;5028492;28;20371;-73
2022/06/06 06:23:01;;;;;;;12.37;6.53;;;;;;;26.15;60.12;96912.41;5047995;28;20734;-73
2022/06/06 06:25:33;;;;;;;8.47;4.53;;;;;;;26.16;58.56;96907.94;5046281;28;20232;-72
2022/06/06 06:28:10;;;;;;;10.33;7.70;;;;;;;25.60;61.14;96917.59;5029612;28;20231;-73
2022/06/06 06:30:46;;;;;;;10.77;5.67;;;;;;;25.32;61.35;96908.28;5028548;28;20324;-73
2022/06/06 06:33:28;;;;;;;18.13;6.63;;;;;;;25.26;61.54;96914.25;5046397;28;20184;-74
2022/06/06 06:36:19;;;;;;;15.37;5.17;;;;;;;25.27;62.00;96920.34;5029868;28;20197;-74
2022/06/06 06:38:51;;;;;;;10.57;4.30;;;;;;;25.19;61.07;96923.84;5046487;28;20562;-73
2022/06/06 06:41:40;;;;;;;8.63;3.80;;;;;;;24.83;62.67;96927.72;5047475;28;20284;-73
2022/06/06 06:44:17;;;;;;;8.60;3.97;;;;;;;24.77;62.51;96926.53;5012904;28;20292;-73
2022/06/06 06:46:57;;;;;;;23.60;7.43;;;;;;;24.87;63.53;96931.72;5046007;28;20481;-73
2022/06/06 06:49:41;;;;;;;8.17;4.00;;;;;;;24.86;64.02;96930.03;5029502;28;20276;-73
2022/06/06 06:52:33;;;;;;;11.63;4.60;;;;;;;24.78;64.52;96914.13;5046730;28;20262;-73
2022/06/06 06:55:38;;;;;;;6.87;4.43;;;;;;;24.67;64.71;96911.72;5027888;28;20676;-73
2022/06/06 06:58:14;;;;;;;15.53;12.00;;;;;;;24.66;64.92;96910.91;4986725;28;20217;-73
2022/06/06 07:00:57;;;;;;;11.90;5.53;;;;;;;24.63;65.40;96915.69;5028243;28;20307;-73
2022/06/06 07:09:57;;;;;;;15.43;5.20;;;;;;;24.82;64.20;96918.94;5036901;28;20229;-73
2022/06/06 07:12:52;;;;;;;8.77;4.37;;;;;;;25.00;63.00;96919.66;5027574;28;20311;-73
2022/06/06 07:15:48;;;;;;;10.80;4.80;;;;;;;24.45;64.94;96901.69;5030266;28;20189;-74
2022/06/06 07:18:18;;;;;;;10.37;3.50;;;;;;;24.24;64.61;96908.22;5028221;28;20201;-72
2022/06/06 07:20:47;;;;;;;7.03;4.17;;;;;;;24.72;62.65;96912.09;5044393;28;20196;-73
2022/06/06 07:23:16;;;;;;;7.93;4.37;;;;;;;24.61;63.14;96892.00;5029044;28;20325;-73
2022/06/06 07:25:50;;;;;;;11.07;5.10;;;;;;;24.90;63.57;96907.53;5027393;28;20228;-72
2022/06/06 07:28:22;;;;;;;4.90;4.43;;;;;;;24.08;64.70;96902.03;5028497;28;20282;-73
2022/06/06 07:34:20;;;;;;;19.80;10.90;;;;;;;24.63;62.97;96919.16;5011130;28;20639;-74
2022/06/06 07:37:06;;;;;;;11.67;6.47;;;;;;;24.52;63.30;96908.88;5012273;28;20764;-73
2022/06/06 07:39:51;;;;;;;10.53;6.50;;;;;;;24.71;61.68;96905.94;5011107;28;20228;-74
2022/06/06 07:42:56;;;;;;;6.63;4.40;;;;;;;24.66;62.96;96900.31;5011488;28;20203;-74
2022/06/06 07:45:30;;;;;;;7.57;4.57;;;;;;;24.56;62.81;96904.91;5047020;28;20574;-74
2022/06/06 07:48:03;;;;;;;10.97;5.67;;;;;;;24.79;62.95;96911.31;5045505;28;20189;-74
2022/06/06 07:51:03;;;;;;;9.37;5.70;;;;;;;24.93;61.95;96908.06;5046302;28;20212;-74
2022/06/06 07:53:49;;;;;;;13.27;4.43;;;;;;;25.32;61.96;96905.63;5012447;28;20675;-74
2022/06/06 07:56:47;;;;;;;5.30;3.60;;;;;;;25.26;60.88;96898.34;5026938;28;20205;-74
2022/06/06 07:59:50;;;;;;;13.00;7.80;;;;;;;25.26;61.01;96902.81;5012274;28;20192;-73
2022/06/06 08:02:41;;;;;;;9.60;5.30;;;;;;;25.42;59.13;96908.16;5028811;28;20198;-75
2022/06/06 08:05:40;;;;;;;5.50;5.00;;;;;;;25.57;59.69;96907.34;5045322;28;20193;-75
2022/06/06 08:08:07;;;;;;;8.47;4.77;;;;;;;25.43;60.83;96913.28;5011040;28;20198;-74
2022/06/06 08:10:40;;;;;;;9.33;5.73;;;;;;;25.63;58.80;96911.16;5046284;28;20193;-74
2022/06/06 08:13:46;;;;;;;6.93;5.47;;;;;;;25.54;57.62;96904.16;5026816;28;20185;-75
2022/06/06 08:16:40;;;;;;;8.57;5.70;;;;;;;25.80;57.96;96915.47;5046009;28;20644;-75
2022/06/06 08:19:22;;;;;;;10.57;7.97;;;;;;;25.89;57.74;96916.25;5009473;28;20211;-74
2022/06/06 08:21:50;;;;;;;5.97;4.93;;;;;;;25.40;58.47;96918.91;5026859;28;20188;-74
2022/06/06 08:24:36;;;;;;;10.03;6.33;;;;;;;24.95;62.47;96931.72;5046326;28;20205;-75
2022/06/06 08:27:26;;;;;;;5.97;3.87;;;;;;;24.64;62.51;96923.50;5045999;28;20660;-74
2022/06/06 08:29:53;;;;;;;5.27;4.27;;;;;;;24.33;63.37;96940.03;5047935;28;20291;-74
2022/06/06 08:32:21;;;;;;;4.87;4.33;;;;;;;24.78;61.27;96937.97;5049991;28;20264;-74
2022/06/06 08:34:48;;;;;;;5.90;4.20;;;;;;;25.35;59.31;96933.66;5030827;28;20197;-73
2022/06/06 08:37:36;;;;;;;9.63;4.90;;;;;;;25.92;57.92;96937.16;5050366;28;20253;-74
2022/06/06 08:40:04;;;;;;;7.00;4.73;;;;;;;26.15;55.94;96938.97;5015369;28;20220;-74
2022/06/06 08:42:57;;;;;;;5.90;3.90;;;;;;;26.18;55.87;96943.13;5031464;28;20202;-74
2022/06/06 08:45:45;;;;;;;6.57;4.80;;;;;;;26.33;56.62;96941.44;5049976;28;20573;-74
2022/06/06 08:48:38;;;;;;;4.73;3.80;;;;;;;25.98;54.01;96947.94;5048150;28;20639;-74
2022/06/06 08:51:17;;;;;;;3.33;3.03;;;;;;;25.88;53.74;96946.44;5049121;28;20295;-71
2022/06/06 08:54:09;;;;;;;4.33;3.90;;;;;;;26.26;53.31;96945.75;5050008;28;20577;-73
2022/06/06 08:56:47;;;;;;;4.40;3.50;;;;;;;26.12;53.83;96933.19;5049244;28;20203;-73
2022/06/06 08:59:26;;;;;;;5.73;3.87;;;;;;;25.88;52.90;96949.94;5015967;28;20229;-74
2022/06/06 09:02:44;;;;;;;5.13;4.20;;;;;;;25.63;52.89;96946.47;5050080;28;20280;-74
2022/06/06 09:05:38;;;;;;;5.50;4.13;;;;;;;25.58;54.04;96954.06;5008688;28;20192;-73
2022/06/06 09:08:23;;;;;;;4.57;3.53;;;;;;;25.31;53.66;96922.50;5050209;28;20208;-73
2022/06/06 09:11:28;;;;;;;3.60;2.90;;;;;;;25.33;54.64;96948.84;5050462;28;20926;-73
2022/06/06 09:14:25;;;;;;;5.67;3.07;;;;;;;24.94;54.18;96951.25;5031737;28;20318;-74
2022/06/06 09:17:20;;;;;;;3.13;2.87;;;;;;;25.20;54.62;96949.38;5033492;28;20525;-73
2022/06/06 09:19:53;;;;;;;4.53;3.27;;;;;;;25.36;53.62;96957.34;5033209;28;20661;-74
2022/06/06 09:22:26;;;;;;;3.97;3.10;;;;;;;25.62;53.96;96946.59;5056295;28;20184;-72
2022/06/06 09:25:24;;;;;;;4.57;3.50;;;;;;;26.10;52.59;96940.47;5040085;28;20182;-74
2022/06/06 09:28:13;;;;;;;3.77;3.00;;;;;;;26.12;51.63;96954.41;5033024;28;20221;-72
2022/06/06 09:31:01;;;;;;;5.40;3.57;;;;;;;26.12;51.41;96934.00;5064915;28;20270;-72
2022/06/06 09:33:45;;;;;;;3.87;2.87;;;;;;;26.20;50.37;96941.97;5049157;28;20265;-73
2022/06/06 09:36:29;;;;;;;3.23;2.83;;;;;;;26.17;49.86;96925.53;5034886;28;20189;-72
2022/06/06 09:39:17;;;;;;;4.00;3.67;;;;;;;26.39;49.35;96930.13;5052550;28;20205;-72
2022/06/06 09:42:08;;;;;;;4.77;3.63;;;;;;;26.83;47.93;96918.00;5051469;28;20188;-74
2022/06/06 09:45:08;;;;;;;6.57;3.70;;;;;;;27.56;47.65;96915.75;5050016;28;20240;-74
2022/06/06 09:47:53;;;;;;;4.93;3.43;;;;;;;27.38;46.90;96894.81;5048671;28;20190;-74
2022/06/06 09:50:51;;;;;;;4.50;3.10;;;;;;;27.00;48.13;96910.78;5049450;28;20200;-73
2022/06/06 09:53:40;;;;;;;4.70;3.67;;;;;;;27.32;48.10;96906.13;5046524;28;20565;-74
2022/06/06 09:59:49;;;;;;;4.33;3.50;;;;;;;27.36;47.57;96917.25;5030518;28;20205;-74
2022/06/06 10:02:22;;;;;;;4.50;3.30;;;;;;;27.61;46.19;96912.56;5047806;28;20278;-74
2022/06/06 10:05:25;;;;;;;4.10;3.20;;;;;;;27.15;48.01;96912.53;5047060;28;20691;-74
2022/06/06 10:08:08;;;;;;;3.20;2.73;;;;;;;26.75;48.08;96912.75;5013397;28;20243;-74
2022/06/06 10:11:09;;;;;;;3.03;2.47;;;;;;;26.04;48.03;96930.50;5029358;28;20252;-74
2022/06/06 10:13:45;;;;;;;3.53;2.53;;;;;;;25.86;49.86;96927.22;5012380;28;20194;-73
2022/06/06 10:16:33;;;;;;;3.03;2.73;;;;;;;26.13;49.42;96921.56;5029824;28;20254;-73
2022/06/06 10:19:25;;;;;;;4.03;2.80;;;;;;;26.05;48.69;96926.88;5028724;28;20184;-73
2022/06/06 10:22:11;;;;;;;3.13;2.43;;;;;;;26.13;48.93;96933.00;5047646;28;20193;-73
2022/06/06 10:25:25;;;;;;;4.47;3.33;;;;;;;26.09;49.10;96928.22;5048615;28;20196;-73
2022/06/06 10:28:25;;;;;;;2.70;2.50;;;;;;;25.79;50.19;96933.19;5047008;28;20181;-73
2022/06/06 10:31:06;;;;;;;2.90;2.20;;;;;;;26.04;49.11;96943.78;5046735;28;20272;-72
2022/06/06 10:34:03;;;;;;;3.00;2.27;;;;;;;26.17;47.20;96925.53;5047467;28;20212;-73
2022/06/06 10:36:48;;;;;;;3.23;2.53;;;;;;;26.14;47.81;96931.19;5028295;28;20205;-74
2022/06/06 10:39:49;;;;;;;2.97;2.37;;;;;;;26.02;46.93;96937.81;5029476;28;20779;-73
2022/06/06 10:43:19;;;;;;;2.40;2.20;;;;;;;26.42;45.80;96930.59;5032540;28;20209;-74
2022/06/06 10:46:06;;;;;;;3.10;2.80;;;;;;;26.75;46.52;96904.78;5029190;28;20194;-73
2022/06/06 10:48:57;;;;;;;2.73;2.37;;;;;;;26.86;47.96;96933.63;5011815;28;20665;-74
2022/06/06 10:51:42;;;;;;;3.97;2.30;;;;;;;26.54;48.51;96944.38;5028800;28;20250;-75
2022/06/06 10:54:27;;;;;;;2.80;2.60;;;;;;;25.83;49.20;96934.50;5028865;28;20192;-73
2022/06/06 10:57:24;;;;;;;4.17;2.70;;;;;;;25.66;48.48;96932.84;5028558;28;20192;-73
2022/06/06 11:00:16;;;;;;;2.80;2.57;;;;;;;25.48;49.23;96924.22;5029334;28;20201;-73
2022/06/06 11:03:13;;;;;;;2.57;2.37;;;;;;;25.91;47.69;96946.09;5028641;28;20197;-73
2022/06/06 11:06:02;;;;;;;2.83;2.50;;;;;;;25.79;48.54;96943.81;5046582;28;20272;-73
2022/06/06 11:09:06;;;;;;;4.57;2.53;;;;;;;26.13;48.64;96943.63;5047419;28;20199;-73
2022/06/06 11:11:51;;;;;;;5.77;2.10;;;;;;;26.35;47.64;96944.75;5046075;28;20209;-73
2022/06/06 11:14:40;;;;;;;2.23;1.93;;;;;;;26.15;47.86;96959.41;5011527;28;20198;-73
2022/06/06 11:17:26;;;;;;;2.63;2.23;;;;;;;26.03;47.90;96960.72;5028870;28;20208;-73
2022/06/06 11:19:59;;;;;;;3.83;2.50;;;;;;;26.24;48.44;96955.72;5028395;28;20183;-73
2022/06/06 11:22:31;;;;;;;2.90;2.37;;;;;;;26.72;47.75;96963.59;5046513;28;20669;-73
2022/06/06 11:25:08;;;;;;;4.07;2.90;;;;;;;26.79;47.23;96955.78;5029360;28;20186;-74
2022/06/06 11:28:15;;;;;;;2.17;1.97;;;;;;;26.75;46.60;96947.28;5045937;28;20670;-73
2022/06/06 11:31:03;;;;;;;2.97;2.00;;;;;;;26.91;46.69;96935.78;4988402;28;20281;-74
2022/06/06 11:33:49;;;;;;;2.50;2.13;;;;;;;27.22;45.82;96931.28;5004655;28;20227;-74
2022/06/06 11:36:55;;;;;;;4.03;2.37;;;;;;;27.09;45.63;96934.53;4987483;28;20202;-72
2022/06/06 11:40:06;;;;;;;6.17;2.70;;;;;;;27.41;44.99;96930.03;5004777;28;20679;-73
2022/06/06 11:42:49;;;;;;;3.17;2.10;;;;;;;27.59;44.99;96925.25;4957507;28;20226;-75
2022/06/06 11:45:43;;;;;;;3.97;1.73;;;;;;;27.57;44.53;96911.28;5003651;28;20202;-73
2022/06/06 11:48:40;;;;;;;3.70;1.87;;;;;;;27.64;42.16;96912.19;5004638;28;20199;-73
2022/06/06 11:51:44;;;;;;;2.33;2.13;;;;;;;28.05;44.44;96911.69;5003943;28;20725;-73
2022/06/06 11:54:49;;;;;;;2.40;2.20;;;;;;;28.29;43.84;96907.97;4987387;28;20195;-75
2022/06/06 11:57:36;;;;;;;3.17;2.10;;;;;;;28.12;44.84;96895.81;5003806;28;20199;-74
2022/06/06 12:00:21;;;;;;;3.83;2.20;;;;;;;28.15;42.88;96885.63;5004565;28;20214;-74
2022/06/06 12:03:06;;;;;;;2.90;1.77;;;;;;;27.75;43.14;96887.84;5025016;28;20257;-73
2022/06/06 12:05:36;;;;;;;3.37;3.07;;;;;;;27.36;43.55;96886.16;5050631;28;20193;-74
2022/06/06 12:08:32;;;;;;;2.23;2.03;;;;;;;27.15;44.34;96890.44;5050853;28;20202;-73
2022/06/06 12:11:06;;;;;;;1.80;1.70;;;;;;;26.73;45.84;96888.16;5030997;28;20183;-74
2022/06/06 12:13:43;;;;;;;4.63;1.93;;;;;;;26.99;46.04;96880.75;5032433;28;20229;-73
2022/06/06 12:16:24;;;;;;;2.83;2.63;;;;;;;26.52;50.80;96887.94;5031943;28;20570;-73
2022/06/06 12:19:38;;;;;;;3.87;2.57;;;;;;;26.21;51.65;96892.34;5050257;28;20190;-73
2022/06/06 12:22:30;;;;;;;4.87;2.37;;;;;;;26.18;48.80;96872.28;4953116;28;20201;-72
2022/06/06 12:24:57;;;;;;;4.03;2.67;;;;;;;25.99;51.86;96896.50;4968054;28;20231;-72
2022/06/06 12:27:46;;;;;;;4.53;3.27;;;;;;;25.92;53.93;96905.31;5005157;28;20260;-73
2022/06/06 12:30:43;;;;;;;5.63;2.77;;;;;;;25.61;56.55;96906.00;5030582;28;21004;-73
2022/06/06 12:33:15;;;;;;;4.00;3.00;;;;;;;25.50;56.60;96901.03;5029604;28;20703;-73
2022/06/06 12:36:10;;;;;;;6.27;2.97;;;;;;;25.51;57.80;96904.50;5030216;28;20196;-73
2022/06/06 12:38:59;;;;;;;3.20;2.80;;;;;;;25.67;57.54;96904.50;5029029;28;20190;-73
2022/06/06 12:41:52;;;;;;;3.77;3.03;;;;;;;25.79;56.93;96884.59;5010744;28;20202;-72
2022/06/06 12:44:34;;;;;;;3.40;2.60;;;;;;;25.97;56.32;96887.03;5027807;28;20778;-73
2022/06/06 12:47:31;;;;;;;2.73;2.47;;;;;;;25.69;57.23;96889.25;5028380;28;20708;-73
2022/06/06 12:50:20;;;;;;;4.03;3.10;;;;;;;26.24;56.53;96900.78;5028455;28;20282;-73
2022/06/06 12:53:06;;;;;;;4.87;2.93;;;;;;;26.13;56.73;96897.69;5028469;28;20252;-73
2022/06/06 12:56:21;;;;;;;2.90;2.70;;;;;;;26.55;55.72;96896.38;5013043;28;20281;-74
2022/06/06 12:59:56;;;;;;;3.53;3.07;;;;;;;26.86;54.87;96899.09;5026862;28;20190;-73
2022/06/06 13:03:03;;;;;;;5.13;3.10;;;;;;;26.88;54.29;96889.09;5025585;28;20201;-73
2022/06/06 13:06:22;;;;;;;5.33;2.53;;;;;;;26.63;54.23;96890.19;5029194;28;20639;-73
2022/06/06 13:09:28;;;;;;;3.00;2.77;;;;;;;26.44;54.11;96890.63;5029654;28;20278;-73